createdAt,value
2018-05-21T00:00:35.154Z,10.30
2018-05-21T00:03:01.299Z,10.23
2018-05-21T00:05:27.183Z,10.15
2018-05-21T00:07:53.044Z,10.10
2018-05-21T00:10:19.064Z,10.06
2018-05-21T00:12:44.931Z,10.01
2018-05-21T00:15:10.867Z,9.96
2018-05-21T00:17:36.836Z,9.91
2018-05-21T00:20:02.814Z,9.88
2018-05-21T00:22:28.775Z,9.85
2018-05-21T00:24:54.707Z,9.83
2018-05-21T00:27:20.559Z,9.76
2018-05-21T00:29:46.412Z,9.74
2018-05-21T00:32:12.340Z,9.71
2018-05-21T00:34:38.327Z,9.70
2018-05-21T00:37:04.257Z,9.74
2018-05-21T00:39:31.415Z,9.74
2018-05-21T00:41:57.290Z,9.65
2018-05-21T00:44:23.161Z,9.58
2018-05-21T00:46:49.160Z,9.55
2018-05-21T00:49:15.037Z,9.52
2018-05-21T00:51:40.922Z,9.54
2018-05-21T00:54:06.859Z,9.52
2018-05-21T00:56:32.751Z,9.54
2018-05-21T00:58:58.710Z,9.53
2018-05-21T01:01:24.631Z,9.53
2018-05-21T01:03:50.505Z,9.48
2018-05-21T01:06:16.388Z,9.45
2018-05-21T01:08:42.308Z,9.43
2018-05-21T01:11:08.307Z,9.37
2018-05-21T01:13:34.228Z,9.34
2018-05-21T01:16:00.158Z,9.31
2018-05-21T01:18:26.064Z,9.30
2018-05-21T01:20:51.946Z,9.28
2018-05-21T01:23:17.935Z,9.25
2018-05-21T01:25:43.807Z,9.28
2018-05-21T01:28:09.671Z,9.29
2018-05-21T01:30:35.608Z,9.30
2018-05-21T01:33:01.529Z,9.29
2018-05-21T01:35:27.508Z,9.28
2018-05-21T01:37:53.427Z,9.33
2018-05-21T01:40:19.309Z,9.35
2018-05-21T01:42:45.183Z,9.34
2018-05-21T01:45:11.100Z,9.32
2018-05-21T01:47:37.086Z,9.34
2018-05-21T01:50:03.012Z,9.30
2018-05-21T01:52:29.332Z,9.29
2018-05-21T01:54:55.200Z,9.25
2018-05-21T01:57:21.071Z,9.21
2018-05-21T01:59:47.072Z,9.19
2018-05-21T02:02:12.935Z,9.16
2018-05-21T02:04:39.939Z,9.15
2018-05-21T02:07:06.042Z,9.15
2018-05-21T02:09:31.936Z,9.14
2018-05-21T02:11:57.908Z,9.14
2018-05-21T02:14:23.874Z,9.13
2018-05-21T02:16:49.809Z,9.12
2018-05-21T02:19:15.683Z,9.14
2018-05-21T02:21:41.597Z,9.13
2018-05-21T02:24:07.579Z,9.14
2018-05-21T02:26:33.502Z,9.10
2018-05-21T02:28:59.455Z,9.07
2018-05-21T02:31:25.331Z,9.09
2018-05-21T02:33:51.197Z,9.08
2018-05-21T02:36:17.213Z,9.03
2018-05-21T02:38:43.092Z,9.01
2018-05-21T02:41:09.020Z,8.99
2018-05-21T02:43:34.981Z,8.98
2018-05-21T02:46:01.149Z,8.95
2018-05-21T02:48:27.090Z,8.91
2018-05-21T02:50:53.015Z,8.91
2018-05-21T02:53:18.939Z,8.89
2018-05-21T02:55:44.818Z,8.85
2018-05-21T02:58:10.727Z,8.92
2018-05-21T03:00:36.795Z,8.86
2018-05-21T03:03:02.713Z,8.85
2018-05-21T03:05:28.695Z,8.84
2018-05-21T03:07:54.561Z,8.85
2018-05-21T03:10:20.488Z,8.92
2018-05-21T03:12:46.508Z,8.99
2018-05-21T03:15:12.387Z,8.99
2018-05-21T03:17:38.314Z,9.00
2018-05-21T03:20:04.263Z,9.00
2018-05-21T03:22:30.131Z,8.99
2018-05-21T03:24:56.108Z,8.97
2018-05-21T03:27:22.029Z,9.00
2018-05-21T03:29:48.007Z,9.01
2018-05-21T03:32:13.863Z,9.02
2018-05-21T03:34:40.165Z,8.99
2018-05-21T03:37:06.155Z,9.01
2018-05-21T03:39:32.072Z,8.99
2018-05-21T03:41:58.051Z,8.97
2018-05-21T03:44:23.920Z,8.98
2018-05-21T03:46:49.792Z,9.04
2018-05-21T03:49:15.883Z,9.09
2018-05-21T03:51:41.766Z,9.06
2018-05-21T03:54:07.715Z,9.09
2018-05-21T03:56:34.077Z,9.07
2018-05-21T03:59:12.323Z,9.13
2018-05-21T04:01:50.738Z,9.14
2018-05-21T04:04:16.681Z,9.17
2018-05-21T04:06:42.660Z,9.22
2018-05-21T04:09:08.573Z,9.22
2018-05-21T04:11:34.473Z,9.27
2018-05-21T04:14:00.403Z,9.33
2018-05-21T04:16:26.368Z,9.42
2018-05-21T04:18:52.351Z,9.45
2018-05-21T04:21:18.135Z,9.57
2018-05-21T04:23:44.048Z,9.63
2018-05-21T04:26:10.007Z,9.73
2018-05-21T04:28:35.921Z,9.81
2018-05-21T04:31:01.883Z,9.91
2018-05-21T04:33:27.755Z,10.04
2018-05-21T04:35:53.618Z,10.15
2018-05-21T04:38:19.511Z,10.28
2018-05-21T04:40:45.417Z,10.38
2018-05-21T04:43:11.280Z,10.55
2018-05-21T04:45:37.232Z,10.66
2018-05-21T04:48:03.155Z,10.74
2018-05-21T04:50:29.023Z,10.83
2018-05-21T04:52:54.951Z,10.99
2018-05-21T04:55:20.852Z,11.18
2018-05-21T04:57:46.711Z,11.44
2018-05-21T05:00:12.683Z,11.74
2018-05-21T05:02:38.579Z,11.86
2018-05-21T05:05:04.615Z,11.94
2018-05-21T05:07:30.543Z,12.23
2018-05-21T05:09:56.468Z,12.38
2018-05-21T05:12:22.517Z,12.58
2018-05-21T05:14:48.447Z,12.80
2018-05-21T05:17:14.420Z,12.81
2018-05-21T05:19:40.296Z,13.04
2018-05-21T05:22:06.684Z,13.21
2018-05-21T05:24:32.619Z,13.29
2018-05-21T05:26:58.549Z,13.45
2018-05-21T05:29:24.536Z,13.57
2018-05-21T05:31:50.397Z,13.76
2018-05-21T05:34:16.271Z,13.95
2018-05-21T05:36:42.197Z,14.12
2018-05-21T05:39:08.099Z,14.26
2018-05-21T05:41:34.019Z,14.41
2018-05-21T05:43:59.931Z,14.36
2018-05-21T05:46:25.807Z,14.38
2018-05-21T05:48:51.782Z,14.56
2018-05-21T05:51:17.699Z,14.62
2018-05-21T05:53:43.573Z,14.73
2018-05-21T05:56:09.459Z,14.84
2018-05-21T05:58:35.454Z,14.92
2018-05-21T06:01:01.405Z,15.03
2018-05-21T06:03:27.282Z,15.14
2018-05-21T06:05:53.206Z,15.16
2018-05-21T06:08:19.067Z,15.27
2018-05-21T06:10:45.195Z,15.35
2018-05-21T06:13:11.108Z,15.42
2018-05-21T06:15:37.000Z,15.55
2018-05-21T06:18:03.021Z,15.61
2018-05-21T06:20:28.947Z,15.79
2018-05-21T06:22:54.799Z,15.88
2018-05-21T06:25:20.679Z,16.06
2018-05-21T06:27:46.600Z,16.10
2018-05-21T06:30:12.595Z,16.22
2018-05-21T06:32:38.474Z,16.43
2018-05-21T06:35:04.440Z,16.55
2018-05-21T06:37:30.409Z,16.60
2018-05-21T06:39:56.280Z,16.71
2018-05-21T06:42:22.251Z,16.83
2018-05-21T06:44:48.128Z,16.99
2018-05-21T06:47:14.063Z,17.13
2018-05-21T06:49:40.099Z,17.20
2018-05-21T06:52:05.972Z,17.36
2018-05-21T06:54:31.939Z,17.52
2018-05-21T06:56:57.872Z,17.70
2018-05-21T06:59:23.758Z,17.85
2018-05-21T07:01:49.641Z,17.92
2018-05-21T07:04:15.572Z,18.19
2018-05-21T07:06:41.494Z,18.15
2018-05-21T07:09:07.400Z,18.43
2018-05-21T07:11:33.373Z,18.42
2018-05-21T07:13:59.243Z,18.70
2018-05-21T07:16:25.129Z,18.74
2018-05-21T07:18:51.031Z,18.84
2018-05-21T07:21:16.903Z,19.13
2018-05-21T07:23:42.763Z,19.17
2018-05-21T07:26:08.725Z,19.42
2018-05-21T07:28:34.607Z,19.25
2018-05-21T07:31:00.467Z,19.58
2018-05-21T07:33:26.392Z,19.69
2018-05-21T07:35:52.258Z,20.04
2018-05-21T07:38:18.207Z,20.34
2018-05-21T07:40:44.123Z,20.16
2018-05-21T07:43:09.995Z,20.31
2018-05-21T07:45:35.883Z,20.42
2018-05-21T07:48:01.805Z,20.57
2018-05-21T07:50:27.700Z,20.60
2018-05-21T07:52:53.576Z,20.85
2018-05-21T07:55:19.530Z,20.75
2018-05-21T07:57:45.460Z,20.87
2018-05-21T08:00:11.382Z,21.15
2018-05-21T08:02:37.306Z,21.23
2018-05-21T08:05:03.331Z,21.37
2018-05-21T08:07:29.167Z,21.54
2018-05-21T08:09:55.078Z,21.76
2018-05-21T08:12:20.980Z,22.02
2018-05-21T08:14:47.015Z,21.94
2018-05-21T08:17:12.856Z,22.06
2018-05-21T08:19:38.738Z,21.72
2018-05-21T08:22:04.622Z,21.76
2018-05-21T08:24:30.556Z,21.93
2018-05-21T08:26:56.472Z,22.10
2018-05-21T08:29:22.353Z,22.46
2018-05-21T08:31:48.379Z,22.61
2018-05-21T08:34:14.236Z,22.71
2018-05-21T08:36:40.151Z,23.18
2018-05-21T08:39:06.095Z,22.98
2018-05-21T08:41:32.009Z,23.07
2018-05-21T08:43:57.911Z,22.82
2018-05-21T08:46:23.884Z,23.12
2018-05-21T08:48:49.941Z,22.92
2018-05-21T08:51:15.723Z,23.23
2018-05-21T08:53:41.662Z,22.98
2018-05-21T08:56:07.541Z,23.01
2018-05-21T08:58:33.430Z,23.39
2018-05-21T09:00:59.395Z,23.79
2018-05-21T09:03:25.302Z,23.59
2018-05-21T09:05:51.179Z,23.74
2018-05-21T09:08:17.203Z,24.13
2018-05-21T09:10:43.069Z,23.92
2018-05-21T09:13:08.965Z,24.25
2018-05-21T09:15:34.909Z,22.92
2018-05-21T09:18:00.796Z,23.00
2018-05-21T09:20:26.781Z,23.15
2018-05-21T09:22:52.694Z,23.32
2018-05-21T09:25:18.618Z,23.51
2018-05-21T09:27:44.511Z,23.00
2018-05-21T09:30:16.921Z,23.54
2018-05-21T09:32:42.862Z,23.96
2018-05-21T09:35:08.763Z,24.11
2018-05-21T09:37:34.819Z,22.78
2018-05-21T09:40:00.716Z,24.20
2018-05-21T09:42:26.643Z,24.63
2018-05-21T09:44:52.560Z,24.68
2018-05-21T09:47:18.511Z,24.40
2018-05-21T09:49:44.387Z,24.43
2018-05-21T09:52:10.364Z,24.40
2018-05-21T09:54:36.221Z,24.85
2018-05-21T09:57:02.124Z,24.61
2018-05-21T09:59:28.059Z,24.08
2018-05-21T10:01:53.930Z,24.35
2018-05-21T10:04:21.871Z,24.31
2018-05-21T10:06:47.810Z,24.68
2018-05-21T10:09:13.716Z,24.87
2018-05-21T10:11:39.690Z,25.15
2018-05-21T10:14:05.614Z,24.79
2018-05-21T10:16:31.516Z,24.83
2018-05-21T10:18:57.396Z,25.39
2018-05-21T10:21:23.331Z,25.59
2018-05-21T10:23:49.305Z,26.00
2018-05-21T10:26:15.178Z,25.84
2018-05-21T10:28:41.113Z,25.46
2018-05-21T10:31:08.039Z,25.42
2018-05-21T10:33:33.939Z,24.77
2018-05-21T10:35:59.913Z,25.08
2018-05-21T10:38:25.796Z,25.13
2018-05-21T10:40:51.721Z,25.20
2018-05-21T10:43:17.667Z,25.66
2018-05-21T10:45:43.565Z,25.51
2018-05-21T10:50:35.297Z,26.39
2018-05-21T10:53:01.172Z,26.33
2018-05-21T10:55:27.077Z,26.11
2018-05-21T10:57:53.037Z,26.95
2018-05-21T11:00:19.967Z,27.12
2018-05-21T11:02:45.870Z,26.83
2018-05-21T11:05:11.807Z,25.98
2018-05-21T11:07:37.683Z,26.82
2018-05-21T11:10:03.588Z,27.50
2018-05-21T11:12:29.618Z,27.87
2018-05-21T11:14:55.499Z,27.29
2018-05-21T11:17:21.401Z,27.26
2018-05-21T11:19:47.383Z,28.22
2018-05-21T11:22:13.255Z,27.76
2018-05-21T11:24:39.187Z,26.92
2018-05-21T11:27:05.084Z,25.89
2018-05-21T11:29:31.421Z,27.47
2018-05-21T11:31:57.296Z,26.81
2018-05-21T11:34:23.231Z,27.06
2018-05-21T11:36:49.168Z,28.10
2018-05-21T11:39:15.049Z,27.87
2018-05-21T11:41:40.973Z,26.81
2018-05-21T11:44:06.845Z,26.10
2018-05-21T11:46:32.703Z,26.10
2018-05-21T11:48:58.613Z,27.36
2018-05-21T11:51:24.482Z,27.74
2018-05-21T11:53:50.424Z,26.70
2018-05-21T11:56:16.713Z,27.13
2018-05-21T11:58:42.601Z,28.64
2018-05-21T12:01:08.504Z,29.37
2018-05-21T12:03:34.469Z,29.86
2018-05-21T12:06:00.356Z,30.73
2018-05-21T12:08:26.235Z,29.51
2018-05-21T12:10:52.185Z,26.42
2018-05-21T12:13:18.135Z,26.96
2018-05-21T12:15:44.005Z,26.94
2018-05-21T12:18:09.964Z,26.77
2018-05-21T12:20:35.872Z,26.19
2018-05-21T12:23:01.764Z,26.71
2018-05-21T12:25:27.672Z,25.08
2018-05-21T12:27:53.605Z,25.62
2018-05-21T12:30:19.520Z,25.78
2018-05-21T12:32:45.737Z,25.74
2018-05-21T12:35:11.683Z,25.60
2018-05-21T12:37:37.552Z,25.12
2018-05-21T12:40:06.640Z,26.09
2018-05-21T12:42:32.512Z,24.28
2018-05-21T12:44:58.383Z,24.30
2018-05-21T12:47:24.327Z,24.54
2018-05-21T12:49:50.235Z,24.72
2018-05-21T12:52:16.106Z,24.92
2018-05-21T12:54:42.051Z,24.73
2018-05-21T12:57:07.928Z,24.93
2018-05-21T12:59:33.923Z,25.18
2018-05-21T13:01:59.855Z,25.43
2018-05-21T13:04:25.740Z,24.62
2018-05-21T13:06:51.707Z,24.49
2018-05-21T13:09:18.775Z,25.05
2018-05-21T13:11:44.708Z,25.47
2018-05-21T13:14:10.672Z,25.83
2018-05-21T13:16:36.581Z,25.31
2018-05-21T13:19:02.491Z,25.23
2018-05-21T13:21:28.367Z,25.41
2018-05-21T13:23:54.371Z,25.54
2018-05-21T13:26:20.354Z,25.64
2018-05-21T13:28:46.275Z,25.56
2018-05-21T13:31:12.188Z,25.51
2018-05-21T13:33:38.092Z,25.20
2018-05-21T13:36:04.039Z,24.82
2018-05-21T13:38:30.019Z,25.39
2018-05-21T13:40:55.937Z,25.17
2018-05-21T13:43:21.829Z,25.18
2018-05-21T13:45:47.839Z,25.12
2018-05-21T13:48:13.877Z,25.31
2018-05-21T13:50:39.847Z,25.19
2018-05-21T13:53:05.796Z,24.69
2018-05-21T13:55:31.673Z,24.72
2018-05-21T13:57:57.580Z,24.94
2018-05-21T14:00:23.575Z,25.22
2018-05-21T14:02:49.578Z,25.63
2018-05-21T14:05:15.451Z,25.63
2018-05-21T14:07:41.403Z,25.19
2018-05-21T14:10:07.278Z,25.02
2018-05-21T14:12:33.252Z,24.94
2018-05-21T14:14:59.214Z,25.11
2018-05-21T14:17:25.166Z,25.27
2018-05-21T14:19:51.068Z,25.18
2018-05-21T14:22:17.053Z,25.11
2018-05-21T14:24:44.164Z,25.05
2018-05-21T14:27:10.248Z,24.82
2018-05-21T14:29:36.668Z,24.69
2018-05-21T14:32:02.569Z,24.60
2018-05-21T14:34:28.784Z,24.75
2018-05-21T14:36:54.884Z,24.23
2018-05-21T14:39:20.780Z,24.43
2018-05-21T14:41:46.635Z,25.20
2018-05-21T14:44:12.569Z,25.12
2018-05-21T14:46:38.651Z,24.81
2018-05-21T14:49:04.609Z,24.39
2018-05-21T14:51:30.555Z,24.76
2018-05-21T14:53:56.416Z,24.56
2018-05-21T14:56:22.284Z,24.73
2018-05-21T14:58:48.387Z,24.46
2018-05-21T15:01:16.324Z,25.01
2018-05-21T15:03:42.297Z,25.47
2018-05-21T15:06:08.288Z,26.97
2018-05-21T15:08:34.278Z,27.63
2018-05-21T15:11:00.140Z,28.90
2018-05-21T15:13:26.076Z,31.12
2018-05-21T15:15:52.012Z,29.35
2018-05-21T15:18:17.966Z,29.88
2018-05-21T15:20:43.900Z,30.77
2018-05-21T15:23:09.842Z,28.26
2018-05-21T15:25:35.761Z,28.30
2018-05-21T15:28:01.679Z,28.74
2018-05-21T15:30:27.588Z,29.18
2018-05-21T15:32:53.498Z,28.86
2018-05-21T15:35:19.460Z,28.23
2018-05-21T15:37:45.342Z,27.49
2018-05-21T15:40:11.219Z,27.64
2018-05-21T15:42:37.162Z,28.38
2018-05-21T15:45:03.068Z,27.01
2018-05-21T15:47:29.380Z,26.80
2018-05-21T15:49:55.295Z,25.69
2018-05-21T15:52:21.207Z,24.91
2018-05-21T15:54:47.128Z,24.45
2018-05-21T15:57:13.055Z,24.35
2018-05-21T15:59:38.939Z,23.93
2018-05-21T16:02:04.839Z,23.97
2018-05-21T16:04:30.783Z,23.66
2018-05-21T16:06:56.781Z,23.61
2018-05-21T16:09:22.678Z,23.58
2018-05-21T16:11:49.713Z,23.60
2018-05-21T16:14:15.664Z,23.57
2018-05-21T16:16:41.619Z,23.65
2018-05-21T16:19:07.618Z,23.56
2018-05-21T16:21:33.569Z,23.66
2018-05-21T16:24:00.551Z,23.56
2018-05-21T16:26:26.486Z,23.47
2018-05-21T16:28:52.477Z,23.41
2018-05-21T16:31:19.557Z,23.38
2018-05-21T16:33:45.508Z,23.44
2018-05-21T16:36:11.390Z,23.37
2018-05-21T16:38:37.332Z,23.31
2018-05-21T16:41:03.343Z,23.26
2018-05-21T16:43:29.287Z,23.18
2018-05-21T16:45:55.182Z,23.15
2018-05-21T16:48:21.114Z,23.19
2018-05-21T16:50:46.984Z,23.05
2018-05-21T16:53:12.871Z,22.96
2018-05-21T16:55:38.796Z,23.00
2018-05-21T16:58:04.723Z,23.00
2018-05-21T17:00:30.740Z,22.85
2018-05-21T17:02:56.615Z,22.85
2018-05-21T17:05:22.500Z,22.80
2018-05-21T17:07:48.412Z,22.71
2018-05-21T17:10:14.385Z,22.60
2018-05-21T17:12:40.264Z,22.51
2018-05-21T17:15:06.133Z,22.44
2018-05-21T17:17:32.081Z,22.38
2018-05-21T17:19:58.019Z,22.34
2018-05-21T17:22:23.899Z,22.24
2018-05-21T17:24:50.060Z,22.24
2018-05-21T17:27:15.946Z,22.12
2018-05-21T17:29:41.915Z,22.05
2018-05-21T17:32:07.859Z,22.07
2018-05-21T17:34:33.723Z,22.05
2018-05-21T17:36:59.630Z,21.99
2018-05-21T17:39:25.624Z,21.93
2018-05-21T17:41:51.552Z,21.86
2018-05-21T17:44:18.460Z,21.93
2018-05-21T17:46:44.392Z,21.83
2018-05-21T17:49:10.271Z,21.73
2018-05-21T17:51:36.201Z,21.66
2018-05-21T17:54:02.094Z,21.64
2018-05-21T17:56:27.990Z,21.50
2018-05-21T17:58:53.871Z,21.45
2018-05-21T18:01:19.809Z,21.49
2018-05-21T18:03:45.796Z,21.31
2018-05-21T18:06:11.696Z,21.15
2018-05-21T18:08:38.736Z,21.11
2018-05-21T18:11:04.604Z,21.11
2018-05-21T18:13:30.496Z,21.05
2018-05-21T18:15:56.472Z,20.87
2018-05-21T18:18:22.351Z,20.85
2018-05-21T18:20:48.346Z,20.70
2018-05-21T18:23:14.352Z,20.47
2018-05-21T18:25:40.259Z,20.51
2018-05-21T18:28:06.151Z,20.37
2018-05-21T18:30:32.114Z,20.27
2018-05-21T18:32:58.079Z,20.17
2018-05-21T18:35:23.952Z,20.15
2018-05-21T18:37:49.868Z,20.11
2018-05-21T18:40:15.784Z,20.02
2018-05-21T18:42:41.789Z,20.05
2018-05-21T18:45:07.793Z,19.91
2018-05-21T18:47:33.667Z,19.89
2018-05-21T18:49:59.560Z,19.71
2018-05-21T18:52:25.480Z,19.60
2018-05-21T18:54:51.352Z,19.44
2018-05-21T18:57:17.267Z,19.30
2018-05-21T18:59:43.228Z,19.31
2018-05-21T19:02:09.130Z,19.28
2018-05-21T19:04:35.012Z,19.14
2018-05-21T19:07:00.943Z,19.07
2018-05-21T19:09:26.897Z,19.00
2018-05-21T19:11:52.849Z,18.80
2018-05-21T19:14:19.191Z,18.72
2018-05-21T19:16:45.096Z,18.72
2018-05-21T19:19:11.033Z,18.58
2018-05-21T19:21:37.033Z,18.52
2018-05-21T19:24:03.067Z,18.39
2018-05-21T19:26:29.021Z,18.33
2018-05-21T19:28:54.987Z,18.22
2018-05-21T19:31:20.883Z,18.06
2018-05-21T19:33:46.874Z,17.86
2018-05-21T19:36:12.840Z,17.84
2018-05-21T19:38:38.710Z,17.69
2018-05-21T19:41:04.600Z,17.56
2018-05-21T19:43:31.295Z,17.42
2018-05-21T19:45:58.520Z,17.28
2018-05-21T19:48:24.391Z,17.14
2018-05-21T19:50:50.434Z,17.01
2018-05-21T19:53:16.412Z,16.91
2018-05-21T19:55:42.336Z,16.78
2018-05-21T19:58:08.253Z,16.67
2018-05-21T20:00:34.123Z,16.56
2018-05-21T20:03:00.043Z,16.43
2018-05-21T20:05:25.984Z,16.32
2018-05-21T20:07:52.057Z,16.23
2018-05-21T20:10:18.049Z,16.14
2018-05-21T20:12:44.382Z,16.04
2018-05-21T20:15:10.456Z,15.94
2018-05-21T20:17:36.341Z,15.84
2018-05-21T20:20:02.294Z,15.79
2018-05-21T20:22:28.268Z,15.71
2018-05-21T20:24:54.155Z,15.67
2018-05-21T20:27:20.399Z,15.61
2018-05-21T20:29:46.446Z,15.53
2018-05-21T20:32:12.345Z,15.47
2018-05-21T20:34:38.254Z,15.38
2018-05-21T20:37:04.182Z,15.34
2018-05-21T20:39:30.325Z,15.32
2018-05-21T20:41:56.247Z,15.31
2018-05-21T20:44:22.172Z,15.31
2018-05-21T20:46:48.082Z,15.34
2018-05-21T20:49:14.083Z,15.28
2018-05-21T20:51:40.044Z,15.28
2018-05-21T20:54:05.923Z,15.27
2018-05-21T20:56:31.852Z,15.26
2018-05-21T20:58:57.731Z,15.20
2018-05-21T21:01:23.813Z,15.16
2018-05-21T21:03:49.683Z,15.09
2018-05-21T21:06:15.656Z,15.03
2018-05-21T21:08:41.541Z,14.98
2018-05-21T21:11:07.463Z,14.92
2018-05-21T21:13:33.329Z,14.88
2018-05-21T21:15:59.215Z,14.85
2018-05-21T21:18:25.115Z,14.79
2018-05-21T21:20:50.996Z,14.75
2018-05-21T21:23:16.948Z,14.70
2018-05-21T21:25:42.882Z,14.67
2018-05-21T21:28:08.747Z,14.59
2018-05-21T21:30:34.660Z,14.48
2018-05-21T21:33:00.620Z,14.42
2018-05-21T21:35:26.507Z,14.35
2018-05-21T21:37:52.375Z,14.29
2018-05-21T21:40:18.295Z,14.25
2018-05-21T21:42:44.163Z,14.21
2018-05-21T21:45:10.041Z,14.18
2018-05-21T21:47:35.963Z,14.13
2018-05-21T21:50:01.873Z,14.14
2018-05-21T21:52:27.822Z,14.14
2018-05-21T21:54:53.744Z,14.17
2018-05-21T21:57:19.607Z,14.19
2018-05-21T21:59:45.472Z,14.16
2018-05-21T22:02:11.478Z,14.18
2018-05-21T22:04:37.289Z,14.14
2018-05-21T22:07:03.180Z,14.11
2018-05-21T22:09:29.219Z,14.06
2018-05-21T22:11:55.118Z,14.02
2018-05-21T22:14:21.014Z,13.95
2018-05-21T22:16:46.931Z,13.93
2018-05-21T22:19:12.796Z,13.92
2018-05-21T22:21:38.658Z,13.89
2018-05-21T22:24:04.689Z,13.86
2018-05-21T22:26:30.580Z,13.84
2018-05-21T22:28:56.464Z,13.82
2018-05-21T22:31:22.397Z,13.76
2018-05-21T22:33:48.263Z,13.71
2018-05-21T22:36:14.145Z,13.65
2018-05-21T22:38:40.140Z,13.62
2018-05-21T22:41:06.032Z,13.58
2018-05-21T22:43:31.941Z,13.50
2018-05-21T22:45:57.960Z,13.50
2018-05-21T22:48:23.828Z,13.45
2018-05-21T22:50:49.708Z,13.40
2018-05-21T22:53:15.649Z,13.36
2018-05-21T22:55:41.535Z,13.37
2018-05-21T22:58:07.421Z,13.32
2018-05-21T23:00:33.461Z,13.25
2018-05-21T23:02:59.348Z,13.23
2018-05-21T23:05:25.222Z,13.18
2018-05-21T23:07:51.141Z,13.10
2018-05-21T23:10:17.031Z,13.06
2018-05-21T23:12:42.905Z,12.97
2018-05-21T23:15:08.814Z,12.90
2018-05-21T23:17:34.688Z,12.87
2018-05-21T23:20:00.612Z,12.82
2018-05-21T23:22:38.840Z,12.77
2018-05-21T23:25:04.755Z,12.71
2018-05-21T23:27:30.630Z,12.67
2018-05-21T23:29:56.603Z,12.62
2018-05-21T23:32:22.487Z,12.54
2018-05-21T23:34:49.185Z,12.53
2018-05-21T23:37:15.087Z,12.52
2018-05-21T23:39:40.953Z,12.48
2018-05-21T23:42:06.834Z,12.45
2018-05-21T23:44:32.780Z,12.39
2018-05-21T23:46:58.693Z,12.31
2018-05-21T23:49:24.570Z,12.27
2018-05-21T23:51:50.483Z,12.21
2018-05-21T23:54:16.359Z,12.17
2018-05-21T23:56:42.241Z,12.16
2018-05-21T23:59:08.159Z,12.14
